Time;durP1;ratioP1;P1;durP2;ratioP2;P2;SDS_P1;SDS_P2;PMS_P1;PMS_P2;Temp;Humidity;BMP_temperature;BMP_pressure;BME280_temperature;BME280_humidity;BME280_pressure;Samples;Min_cycle;Max_cycle;Signal;HPM_P1;HPM_P2
2023/08/26 00:02:20;;;;;;;1.10;0.70;;;17.30;99.90;17.30;99920.00;;;;5024714;27;111387;-64
2023/08/26 00:04:49;;;;;;;0.47;0.47;;;17.20;99.90;17.30;99919.00;;;;5024014;27;107141;-65
2023/08/26 00:07:14;;;;;;;0.32;0.32;;;17.20;99.90;17.20;99922.00;;;;5022207;27;109050;-65
2023/08/26 00:09:40;;;;;;;0.75;0.47;;;17.20;99.90;17.20;99930.00;;;;5023588;27;113108;-65
2023/08/26 00:12:06;;;;;;;0.32;0.32;;;17.10;99.90;17.20;99932.00;;;;5022378;27;108245;-64
2023/08/26 00:14:32;;;;;;;0.60;0.50;;;17.10;99.90;17.10;99918.00;;;;5023505;27;94127;-64
2023/08/26 00:16:58;;;;;;;1.25;0.60;;;17.10;99.90;17.10;99919.00;;;;5023756;27;108922;-64
2023/08/26 00:19:24;;;;;;;0.30;0.20;;;17.00;99.90;17.10;99922.00;;;;5026853;27;82941;-65
2023/08/26 00:21:50;;;;;;;0.50;0.50;;;17.00;99.90;17.10;99913.00;;;;5026773;27;104498;-65
2023/08/26 00:24:17;;;;;;;0.52;0.52;;;17.00;99.90;17.10;99914.00;;;;5021736;27;84163;-65
2023/08/26 00:26:42;;;;;;;0.30;0.30;;;17.00;99.90;17.10;99916.00;;;;5025087;27;82040;-64
2023/08/26 00:29:08;;;;;;;3.72;0.55;;;17.00;99.90;17.10;99910.00;;;;5020678;27;112971;-64
2023/08/26 00:31:34;;;;;;;0.35;0.20;;;17.00;99.90;17.10;99915.00;;;;5025110;27;111925;-64
2023/08/26 00:34:02;;;;;;;0.50;0.38;;;17.00;99.90;17.00;99914.00;;;;5026789;27;109790;-64
2023/08/26 00:36:28;;;;;;;0.95;0.55;;;17.00;99.90;17.00;99905.00;;;;5028052;27;82778;-64
2023/08/26 00:38:54;;;;;;;0.52;0.30;;;17.00;99.90;17.00;99905.00;;;;5025693;27;82677;-65
2023/08/26 00:41:20;;;;;;;0.50;0.47;;;17.00;99.90;17.00;99902.00;;;;5026141;27;111443;-63
2023/08/26 00:43:46;;;;;;;0.60;0.35;;;17.00;99.90;17.00;99906.00;;;;5026313;27;109402;-64
2023/08/26 00:46:12;;;;;;;2.10;0.63;;;17.00;99.90;17.10;99905.00;;;;5022256;27;109374;-64
2023/08/26 00:48:37;;;;;;;0.40;0.40;;;17.00;99.90;17.10;99903.00;;;;5026244;27;110518;-64
2023/08/26 00:51:04;;;;;;;0.55;0.55;;;17.00;99.90;17.10;99905.00;;;;5024416;27;111887;-64
2023/08/26 00:53:30;;;;;;;2.67;0.57;;;17.00;99.90;17.10;99890.00;;;;5014953;27;111071;-65
2023/08/26 00:55:56;;;;;;;0.85;0.50;;;17.00;99.90;17.10;99903.00;;;;5026636;27;108944;-65
2023/08/26 00:58:22;;;;;;;1.13;0.80;;;17.00;99.90;17.10;99907.00;;;;5024829;27;112777;-64
2023/08/26 01:00:48;;;;;;;1.08;0.98;;;17.00;99.90;17.10;99908.00;;;;5008998;27;83687;-65
2023/08/26 01:03:14;;;;;;;0.40;0.40;;;17.00;99.90;17.10;99896.00;;;;5026681;27;82574;-65
2023/08/26 01:05:40;;;;;;;2.38;1.05;;;17.00;99.90;17.10;99901.00;;;;5026109;27;97703;-65
2023/08/26 01:08:07;;;;;;;0.75;0.55;;;17.00;99.90;17.10;99896.00;;;;5026910;27;111793;-64
2023/08/26 01:11:17;;;;;;;2.13;0.30;;;17.00;99.90;17.10;99895.00;;;;5028050;27;88296;-64
2023/08/26 01:14:23;;;;;;;0.65;0.47;;;17.00;99.90;17.10;99904.00;;;;5026395;27;83220;-65
2023/08/26 01:16:49;;;;;;;0.85;0.85;;;17.00;99.90;17.10;99893.00;;;;5012774;27;81950;-63
2023/08/26 01:19:40;;;;;;;0.60;0.60;;;17.00;99.90;17.10;99897.00;;;;5023870;27;112544;-64
2023/08/26 01:22:08;;;;;;;1.10;0.73;;;17.00;99.90;17.10;99885.00;;;;5024276;27;84162;-65
2023/08/26 01:24:36;;;;;;;1.20;0.55;;;17.00;99.90;17.10;99881.00;;;;5024097;27;83496;-65
2023/08/26 01:27:02;;;;;;;1.75;0.85;;;17.00;99.90;17.10;99882.00;;;;5025224;27;83126;-65
2023/08/26 01:29:29;;;;;;;1.98;1.15;;;17.00;99.90;17.10;99884.00;;;;5026641;27;83604;-65
2023/08/26 01:32:18;;;;;;;0.63;0.55;;;17.00;99.90;17.10;99876.00;;;;5009047;27;83661;-64
2023/08/26 01:34:50;;;;;;;1.98;0.82;;;17.00;99.90;17.10;99883.00;;;;5011821;27;83136;-65
2023/08/26 01:37:18;;;;;;;0.95;0.68;;;17.10;99.90;17.20;99895.00;;;;5025190;27;82807;-65
2023/08/26 01:39:46;;;;;;;0.93;0.60;;;17.10;99.90;17.20;99882.00;;;;5007654;27;83955;-65
2023/08/26 01:42:12;;;;;;;1.17;0.95;;;17.10;99.90;17.20;99877.00;;;;5024147;27;100705;-65
2023/08/26 01:44:41;;;;;;;2.65;1.08;;;17.10;99.90;17.20;99867.00;;;;5006251;27;111796;-65
2023/08/26 01:47:07;;;;;;;4.75;1.20;;;17.20;99.90;17.20;99869.00;;;;5004956;27;109222;-65
2023/08/26 01:49:33;;;;;;;1.30;0.90;;;17.10;99.90;17.20;99877.00;;;;5029166;27;112669;-65
2023/08/26 01:51:59;;;;;;;1.42;0.85;;;17.20;99.90;17.30;99879.00;;;;5026318;27;97307;-64
2023/08/26 01:54:24;;;;;;;5.00;0.80;;;17.20;99.90;17.30;99882.00;;;;5004714;27;110607;-64
2023/08/26 01:56:50;;;;;;;1.88;0.98;;;17.20;99.90;17.30;99871.00;;;;5024956;27;108946;-64
2023/08/26 01:59:16;;;;;;;1.70;1.42;;;17.20;99.90;17.40;99866.00;;;;5021613;27;108115;-64
2023/08/26 02:01:42;;;;;;;0.70;0.60;;;17.30;99.90;17.40;99861.00;;;;5024201;27;83466;-64
2023/08/26 02:04:07;;;;;;;0.43;0.43;;;17.30;99.90;17.40;99859.00;;;;5012968;27;94889;-64
2023/08/26 02:06:33;;;;;;;1.65;0.65;;;17.30;99.90;17.40;99857.00;;;;5026370;27;107968;-64
2023/08/26 02:08:59;;;;;;;1.83;0.55;;;17.30;99.90;17.40;99856.00;;;;5028546;27;83747;-64
2023/08/26 02:11:24;;;;;;;1.30;0.90;;;17.30;99.90;17.40;99850.00;;;;5026079;27;83601;-64
2023/08/26 02:13:50;;;;;;;1.52;0.88;;;17.30;99.90;17.50;99843.00;;;;5027588;27;110007;-64
2023/08/26 02:16:16;;;;;;;0.65;0.65;;;17.30;99.90;17.50;99842.00;;;;5023706;27;108566;-65
2023/08/26 02:18:41;;;;;;;0.80;0.60;;;17.40;99.90;17.50;99845.00;;;;5025494;27;110272;-64
2023/08/26 02:21:08;;;;;;;2.88;1.20;;;17.40;99.90;17.50;99857.00;;;;5021327;27;113884;-64
2023/08/26 02:23:34;;;;;;;1.75;1.20;;;17.40;99.90;17.60;99862.00;;;;5023576;27;82665;-63
2023/08/26 02:26:00;;;;;;;2.17;0.88;;;17.40;99.90;17.60;99856.00;;;;5025608;27;82692;-64
2023/08/26 02:28:25;;;;;;;0.60;0.60;;;17.40;99.90;17.60;99855.00;;;;5024382;27;112063;-64
2023/08/26 02:30:51;;;;;;;3.75;1.58;;;17.50;99.90;17.60;99848.00;;;;5029511;27;112338;-64
2023/08/26 02:33:17;;;;;;;0.98;0.88;;;17.50;99.90;17.70;99852.00;;;;5028417;27;110335;-64
2023/08/26 02:35:46;;;;;;;1.02;0.80;;;17.50;99.90;17.70;99862.00;;;;5028259;27;82675;-64
2023/08/26 02:38:13;;;;;;;0.93;0.45;;;17.60;99.90;17.80;99854.00;;;;5027020;27;83741;-63
2023/08/26 02:40:39;;;;;;;0.22;0.22;;;17.70;99.90;17.80;99843.00;;;;5028723;27;101656;-63
2023/08/26 02:43:05;;;;;;;0.70;0.70;;;17.70;99.90;17.90;99837.00;;;;5028719;27;92384;-63
2023/08/26 02:45:31;;;;;;;1.08;0.95;;;17.80;99.90;17.90;99850.00;;;;5028668;27;100909;-63
2023/08/26 02:47:57;;;;;;;2.90;0.82;;;17.80;99.90;18.00;99842.00;;;;5009594;27;112110;-64
2023/08/26 02:50:24;;;;;;;1.83;1.17;;;17.90;99.90;18.00;99847.00;;;;5027689;27;83118;-64
2023/08/26 02:52:51;;;;;;;0.70;0.60;;;17.90;99.90;18.00;99844.00;;;;5028722;27;83271;-64
2023/08/26 02:55:17;;;;;;;1.10;0.70;;;17.90;99.90;18.00;99838.00;;;;5032226;27;92807;-64
2023/08/26 02:57:43;;;;;;;0.35;0.35;;;17.90;99.90;18.10;99833.00;;;;5026593;27;83701;-64
2023/08/26 03:00:09;;;;;;;3.33;1.15;;;17.90;99.90;18.10;99839.00;;;;5027328;27;83088;-63
2023/08/26 03:02:35;;;;;;;0.50;0.40;;;17.90;99.90;18.10;99847.00;;;;5029337;27;83803;-64
2023/08/26 03:05:02;;;;;;;0.90;0.77;;;18.00;99.90;18.10;99840.00;;;;5026319;27;91592;-63
2023/08/26 03:07:28;;;;;;;2.15;0.90;;;18.00;99.90;18.10;99835.00;;;;5025604;27;105541;-63
2023/08/26 03:09:53;;;;;;;1.33;0.88;;;18.00;99.90;18.10;99838.00;;;;5024734;27;112308;-63
2023/08/26 03:12:19;;;;;;;1.52;1.42;;;18.00;99.90;18.10;99840.00;;;;5024679;27;110997;-64
2023/08/26 03:14:45;;;;;;;4.28;1.88;;;18.10;99.90;18.20;99849.00;;;;5025449;27;108892;-63
2023/08/26 03:17:10;;;;;;;2.35;1.65;;;18.10;99.90;18.20;99848.00;;;;5032631;27;82971;-63
2023/08/26 03:19:37;;;;;;;2.25;1.75;;;18.00;99.90;18.10;99854.00;;;;5029709;27;113960;-63
2023/08/26 03:22:02;;;;;;;1.73;1.40;;;18.10;99.90;18.20;99851.00;;;;5031370;27;110567;-64
2023/08/26 03:24:28;;;;;;;2.38;2.13;;;18.10;99.90;18.10;99863.00;;;;5029663;27;86851;-64
2023/08/26 03:26:54;;;;;;;1.85;1.75;;;18.00;99.90;18.10;99868.00;;;;5027153;27;113208;-63
2023/08/26 03:29:19;;;;;;;1.58;1.10;;;18.10;99.90;18.10;99881.00;;;;5024818;27;113226;-64
2023/08/26 03:31:45;;;;;;;1.13;1.00;;;18.10;99.90;18.10;99881.00;;;;5027729;27;109068;-64
2023/08/26 03:34:11;;;;;;;2.67;1.00;;;18.00;99.90;18.10;99890.00;;;;5004507;27;82586;-64
2023/08/26 03:36:36;;;;;;;0.95;0.95;;;18.00;99.90;18.10;99882.00;;;;5026747;27;112977;-64
2023/08/26 03:39:02;;;;;;;1.33;0.93;;;18.00;99.90;18.10;99882.00;;;;5026125;27;86826;-64
2023/08/26 03:41:28;;;;;;;1.85;1.05;;;18.00;99.90;18.10;99881.00;;;;5029199;27;82687;-64
2023/08/26 03:43:53;;;;;;;1.48;0.73;;;18.00;99.90;18.10;99892.00;;;;5025060;27;108534;-64
2023/08/26 03:46:19;;;;;;;2.15;1.67;;;18.00;99.90;18.10;99881.00;;;;5022259;27;114358;-64
2023/08/26 03:48:45;;;;;;;0.70;0.65;;;18.00;99.90;18.20;99878.00;;;;5022728;27;112377;-64
2023/08/26 03:51:10;;;;;;;0.98;0.98;;;18.10;99.90;18.20;99881.00;;;;5022034;27;109871;-64
2023/08/26 03:53:36;;;;;;;3.03;1.45;;;18.10;99.90;18.20;99881.00;;;;5025192;27;110100;-63
2023/08/26 03:56:03;;;;;;;1.35;1.30;;;18.10;99.90;18.20;99883.00;;;;5029332;27;83266;-65
2023/08/26 03:58:28;;;;;;;2.38;1.08;;;18.10;99.90;18.30;99878.00;;;;5027215;27;95827;-64
2023/08/26 04:01:07;;;;;;;1.40;1.08;;;18.20;99.90;18.30;99884.00;;;;5029770;27;106946;-64
2023/08/26 04:03:33;;;;;;;1.38;1.27;;;18.20;99.90;18.30;99878.00;;;;5025235;27;82740;-64
2023/08/26 04:06:01;;;;;;;1.17;1.08;;;18.20;99.90;18.40;99889.00;;;;5026823;27;83976;-64
2023/08/26 04:08:31;;;;;;;1.08;0.90;;;18.30;99.90;18.40;99890.00;;;;5026343;27;85199;-64
2023/08/26 04:10:59;;;;;;;1.67;1.13;;;18.30;99.90;18.40;99890.00;;;;5027464;27;82883;-63
2023/08/26 04:13:27;;;;;;;3.97;1.38;;;18.30;99.90;18.50;99903.00;;;;5028515;27;82607;-64
2023/08/26 04:15:56;;;;;;;1.55;1.05;;;18.30;99.90;18.50;99910.00;;;;5025118;27;84876;-64
2023/08/26 04:18:22;;;;;;;1.35;1.25;;;18.40;99.90;18.50;99910.00;;;;5023984;27;87247;-64
2023/08/26 04:20:49;;;;;;;1.65;1.08;;;18.40;99.90;18.50;99912.00;;;;5026974;27;82726;-62
2023/08/26 04:23:15;;;;;;;2.70;1.50;;;18.40;99.90;18.60;99910.00;;;;5026936;27;82619;-63
2023/08/26 04:25:41;;;;;;;1.95;1.70;;;18.40;99.90;18.60;99922.00;;;;5029312;27;111820;-63
2023/08/26 04:28:07;;;;;;;3.55;1.15;;;18.50;99.90;18.70;99930.00;;;;5032328;27;83518;-63
2023/08/26 04:30:33;;;;;;;2.92;1.63;;;18.50;99.90;18.70;99938.00;;;;5027357;27;82809;-63
2023/08/26 04:33:00;;;;;;;2.28;1.30;;;18.60;99.90;18.80;99930.00;;;;5028209;27;81932;-63
2023/08/26 04:35:27;;;;;;;1.52;1.30;;;18.60;99.90;18.80;99939.00;;;;5026238;27;84169;-64
2023/08/26 04:37:52;;;;;;;1.88;1.23;;;18.70;99.90;18.80;99938.00;;;;5023705;27;83642;-63
2023/08/26 04:40:18;;;;;;;1.50;1.30;;;18.70;99.90;18.80;99935.00;;;;5024860;27;93033;-63
2023/08/26 04:42:45;;;;;;;2.75;1.73;;;18.70;99.90;18.90;99936.00;;;;5027005;27;82640;-64
2023/08/26 04:45:14;;;;;;;2.58;1.60;;;18.70;99.90;18.90;99934.00;;;;5023240;27;83490;-63
2023/08/26 04:47:41;;;;;;;1.95;1.35;;;18.70;99.90;18.90;99944.00;;;;5026686;27;83781;-63
2023/08/26 04:50:08;;;;;;;1.60;1.30;;;18.70;99.90;18.90;99947.00;;;;5027039;27;82655;-64
2023/08/26 04:52:33;;;;;;;3.78;1.70;;;18.70;99.90;18.90;99955.00;;;;5025586;27;101390;-64
2023/08/26 04:54:59;;;;;;;3.20;1.67;;;18.80;99.90;19.00;99948.00;;;;5024493;27;112529;-64
2023/08/26 04:57:25;;;;;;;1.85;1.25;;;18.80;99.90;19.00;99950.00;;;;5028837;27;88829;-64
2023/08/26 04:59:51;;;;;;;2.05;1.73;;;18.80;99.90;19.10;99970.00;;;;5026703;27;109088;-64
2023/08/26 05:02:17;;;;;;;4.32;1.77;;;18.90;99.90;19.10;99967.00;;;;5025988;27;82842;-64
2023/08/26 05:04:44;;;;;;;3.00;2.33;;;19.00;99.90;19.20;99963.00;;;;5024406;27;105582;-64
2023/08/26 05:07:10;;;;;;;2.60;2.10;;;19.00;99.90;19.20;99969.00;;;;5027286;27;83391;-65
2023/08/26 05:09:36;;;;;;;2.40;1.88;;;19.10;99.90;19.30;99978.00;;;;5028208;27;82911;-65
2023/08/26 05:12:03;;;;;;;2.45;1.85;;;19.10;99.90;19.30;99991.00;;;;5027920;27;82954;-65
2023/08/26 05:14:28;;;;;;;2.35;2.00;;;19.20;99.90;19.40;99985.00;;;;5026540;27;83892;-65
2023/08/26 05:16:54;;;;;;;2.25;2.05;;;19.20;99.90;19.40;99991.00;;;;5023557;27;112533;-65
2023/08/26 05:19:23;;;;;;;5.13;2.15;;;19.20;99.90;19.40;99999.00;;;;5025582;27;83081;-66
2023/08/26 05:21:48;;;;;;;2.58;2.20;;;19.30;99.90;19.50;99987.00;;;;5026486;27;87044;-67
2023/08/26 05:24:14;;;;;;;1.80;1.70;;;19.30;99.90;19.50;99990.00;;;;5028165;27;112561;-65
2023/08/26 05:26:41;;;;;;;2.40;1.65;;;19.30;99.90;19.50;99995.00;;;;5028081;27;83002;-65
2023/08/26 05:29:07;;;;;;;2.20;1.73;;;19.40;99.90;19.60;99984.00;;;;5028304;27;83780;-65
2023/08/26 05:31:32;;;;;;;2.38;1.92;;;19.40;99.90;19.60;99982.00;;;;5028197;27;109070;-66
2023/08/26 05:33:58;;;;;;;2.17;2.00;;;19.50;99.90;19.60;99980.00;;;;5025297;27;111781;-65
2023/08/26 05:36:24;;;;;;;2.47;1.80;;;19.50;99.90;19.70;99970.00;;;;5027189;27;83147;-66
2023/08/26 05:38:49;;;;;;;2.97;2.03;;;19.50;99.90;19.70;99968.00;;;;5025806;27;110021;-66
2023/08/26 05:41:16;;;;;;;2.80;1.90;;;19.60;99.90;19.70;99970.00;;;;5024028;27;108896;-66
2023/08/26 05:43:41;;;;;;;2.53;1.80;;;19.60;99.90;19.70;99973.00;;;;5022633;27;111684;-65
2023/08/26 05:46:07;;;;;;;1.92;1.42;;;19.60;99.90;19.70;99974.00;;;;5023119;27;111371;-66
2023/08/26 05:48:33;;;;;;;1.98;1.45;;;19.60;99.90;19.80;99976.00;;;;5026034;27;108984;-66
2023/08/26 05:50:59;;;;;;;1.73;1.55;;;19.60;99.90;19.80;99984.00;;;;5023543;27;108498;-66
2023/08/26 05:53:28;;;;;;;2.20;1.73;;;19.60;99.90;19.80;99978.00;;;;5023237;27;112376;-66
2023/08/26 05:55:54;;;;;;;2.03;1.50;;;19.60;99.90;19.80;99980.00;;;;5027051;27;86091;-67
2023/08/26 05:58:20;;;;;;;2.15;1.65;;;19.70;99.90;19.80;99980.00;;;;5007442;27;97655;-66
2023/08/26 06:00:47;;;;;;;2.33;1.75;;;19.70;99.90;19.80;99987.00;;;;5029540;27;108376;-66
2023/08/26 06:03:13;;;;;;;2.33;2.00;;;19.70;99.90;19.90;99983.00;;;;5025744;27;83556;-66
2023/08/26 06:05:38;;;;;;;1.95;1.60;;;19.70;99.90;19.90;99992.00;;;;5031744;27;83407;-66
2023/08/26 06:08:05;;;;;;;2.70;2.22;;;19.70;99.90;19.90;99992.00;;;;5028881;27;109769;-67
2023/08/26 06:10:31;;;;;;;2.28;1.83;;;19.70;99.90;19.90;99989.00;;;;5010223;27;108264;-66
2023/08/26 06:13:04;;;;;;;2.30;1.40;;;19.80;99.90;19.90;99983.00;;;;5028045;27;112556;-66
2023/08/26 06:15:30;;;;;;;1.45;1.33;;;19.80;99.90;19.90;99978.00;;;;5027198;27;83040;-67
2023/08/26 06:18:03;;;;;;;1.48;1.38;;;19.80;99.90;19.90;99986.00;;;;5023161;27;110353;-66
2023/08/26 06:20:29;;;;;;;4.57;1.77;;;19.80;99.90;20.00;99994.00;;;;5027029;27;82846;-66
2023/08/26 06:22:55;;;;;;;2.55;1.73;;;19.80;99.90;20.00;100003.00;;;;5022190;27;83819;-66
2023/08/26 06:25:20;;;;;;;1.90;1.40;;;19.90;99.90;20.00;99996.00;;;;5023441;27;97407;-66
2023/08/26 06:27:46;;;;;;;1.92;1.35;;;19.90;99.90;20.00;99999.00;;;;5022021;27;110653;-66
2023/08/26 06:30:12;;;;;;;3.13;1.88;;;19.90;99.90;20.00;100003.00;;;;5024297;27;108442;-66
2023/08/26 06:32:37;;;;;;;4.63;2.47;;;19.90;99.90;20.00;100005.00;;;;5025019;27;109007;-65
2023/08/26 06:35:04;;;;;;;2.90;1.98;;;19.90;99.90;20.00;100021.00;;;;5022677;27;113684;-65
2023/08/26 06:37:30;;;;;;;1.48;1.38;;;19.90;99.90;20.00;100023.00;;;;5022814;27;82908;-66
2023/08/26 06:39:56;;;;;;;1.65;1.40;;;19.80;99.90;20.10;100033.00;;;;5020748;27;98099;-66
2023/08/26 06:42:21;;;;;;;2.60;2.13;;;19.90;99.90;20.10;100029.00;;;;5023005;27;113388;-66
2023/08/26 06:44:47;;;;;;;3.38;2.38;;;19.90;99.90;20.20;100034.00;;;;5026195;27;83361;-65
2023/08/26 06:47:13;;;;;;;2.88;1.85;;;20.00;99.90;20.20;100033.00;;;;5025870;27;82914;-67
2023/08/26 06:49:38;;;;;;;3.53;1.85;;;20.00;99.90;20.30;100038.00;;;;5025458;27;108205;-66
2023/08/26 06:52:04;;;;;;;1.73;1.55;;;20.10;99.90;20.30;100040.00;;;;5027551;27;112833;-67
2023/08/26 06:54:33;;;;;;;1.83;1.58;;;20.10;99.90;20.40;100042.00;;;;5023053;27;98043;-67
2023/08/26 06:56:58;;;;;;;3.30;1.75;;;20.20;99.90;20.40;100028.00;;;;5022439;27;101570;-66
2023/08/26 06:59:24;;;;;;;1.80;1.40;;;20.20;99.90;20.40;100041.00;;;;5021206;27;107580;-66
2023/08/26 07:01:50;;;;;;;3.63;2.25;;;20.30;99.90;20.50;100044.00;;;;5023893;27;112490;-65
2023/08/26 07:04:15;;;;;;;3.55;2.03;;;20.30;99.90;20.50;100041.00;;;;5020731;27;111402;-65
2023/08/26 07:06:41;;;;;;;2.85;1.88;;;20.40;99.90;20.60;100043.00;;;;5020125;27;112426;-67
2023/08/26 07:09:10;;;;;;;1.90;1.55;;;20.40;99.90;20.60;100031.00;;;;5023083;27;99088;-65
2023/08/26 07:11:36;;;;;;;2.08;1.50;;;20.50;99.90;20.70;100042.00;;;;5023715;27;83581;-65
2023/08/26 07:14:01;;;;;;;2.90;1.98;;;20.50;99.90;20.80;100046.00;;;;5022628;27;112337;-66
2023/08/26 07:16:28;;;;;;;1.95;1.70;;;20.60;99.90;20.80;100048.00;;;;5022826;27;88738;-66
2023/08/26 07:18:54;;;;;;;2.05;1.85;;;20.70;99.90;20.90;100043.00;;;;5024789;27;83149;-67
2023/08/26 07:21:20;;;;;;;1.90;1.20;;;20.70;99.90;21.00;100040.00;;;;5021833;27;112267;-66
2023/08/26 07:23:45;;;;;;;2.47;2.10;;;20.80;99.90;21.00;100048.00;;;;5025966;27;83195;-66
2023/08/26 07:26:11;;;;;;;1.70;1.58;;;20.80;99.90;21.00;100047.00;;;;5021643;27;110919;-66
2023/08/26 07:28:37;;;;;;;4.53;1.67;;;20.80;99.90;21.10;100047.00;;;;5021391;27;109007;-66
2023/08/26 07:31:05;;;;;;;2.53;2.17;;;20.80;99.90;21.10;100063.00;;;;5023899;27;112907;-67
2023/08/26 07:33:31;;;;;;;4.05;2.42;;;20.90;99.90;21.20;100063.00;;;;5023709;27;85298;-68
2023/08/26 07:36:08;;;;;;;1.88;1.63;;;21.00;99.90;21.30;100063.00;;;;5027196;27;96372;-67
2023/08/26 07:38:34;;;;;;;1.85;1.63;;;21.10;99.90;21.40;100058.00;;;;5023395;27;82935;-67
2023/08/26 07:41:00;;;;;;;2.83;1.90;;;21.20;99.90;21.50;100064.00;;;;5028749;27;83258;-67
2023/08/26 07:43:26;;;;;;;2.28;2.08;;;21.30;99.90;21.60;100056.00;;;;5021417;27;115416;-66
2023/08/26 07:45:52;;;;;;;2.38;2.17;;;21.40;99.90;21.80;100068.00;;;;5027463;27;111094;-66
2023/08/26 07:48:17;;;;;;;2.22;1.45;;;21.50;99.90;22.00;100059.00;;;;5025569;27;108343;-66
2023/08/26 07:50:43;;;;;;;1.63;1.33;;;21.70;99.90;22.20;100055.00;;;;5026291;27;112535;-66
2023/08/26 07:53:09;;;;;;;1.75;1.50;;;21.90;99.90;22.40;100054.00;;;;5021787;27;111620;-66
2023/08/26 07:55:35;;;;;;;5.15;1.83;;;22.10;99.90;22.70;100052.00;;;;5028038;27;83959;-66
2023/08/26 07:58:01;;;;;;;1.45;1.35;;;22.30;99.90;22.90;100046.00;;;;5021847;27;108356;-66
2023/08/26 08:00:27;;;;;;;2.10;1.65;;;22.50;99.90;23.10;100056.00;;;;5026371;27;102907;-66
2023/08/26 08:02:55;;;;;;;2.35;1.83;;;22.70;99.90;23.20;100056.00;;;;5027723;27;92431;-66
2023/08/26 08:05:21;;;;;;;3.05;1.83;;;22.90;99.90;23.40;100051.00;;;;5027664;27;82977;-66
2023/08/26 08:07:47;;;;;;;2.83;1.42;;;23.10;99.90;23.70;100056.00;;;;5029547;27;101560;-66
2023/08/26 08:10:12;;;;;;;3.50;1.05;;;23.30;99.90;24.00;100045.00;;;;5022104;27;112293;-67
2023/08/26 08:12:38;;;;;;;4.32;2.45;;;23.60;99.90;24.30;100049.00;;;;5024220;27;112755;-66
2023/08/26 08:15:05;;;;;;;5.35;2.30;;;23.20;99.90;24.70;100047.00;;;;5023677;27;109689;-67
2023/08/26 08:17:31;;;;;;;1.63;1.52;;;24.30;99.90;25.00;100047.00;;;;5024605;27;82643;-67
2023/08/26 08:19:57;;;;;;;1.38;1.27;;;24.60;99.90;25.30;100046.00;;;;5025532;27;114273;-67
2023/08/26 08:22:43;;;;;;;1.65;1.40;;;24.90;99.90;25.40;100037.00;;;;5026573;27;114101;-67
2023/08/26 08:25:09;;;;;;;1.85;1.73;;;25.10;99.90;25.50;100030.00;;;;5006478;27;83095;-67
2023/08/26 08:27:39;;;;;;;1.55;1.20;;;25.20;99.90;25.50;100039.00;;;;5023200;27;82939;-68
2023/08/26 08:30:06;;;;;;;2.05;1.38;;;25.30;99.90;25.60;100035.00;;;;5005172;27;83152;-67
2023/08/26 08:32:33;;;;;;;3.65;1.30;;;25.30;99.90;25.70;100045.00;;;;5026298;27;83894;-67
2023/08/26 08:35:02;;;;;;;0.90;0.80;;;25.40;99.90;25.80;100040.00;;;;5024472;27;82851;-68
2023/08/26 08:37:28;;;;;;;1.90;1.42;;;25.50;99.90;26.00;100033.00;;;;5023783;27;82043;-68
2023/08/26 08:39:54;;;;;;;2.35;1.13;;;25.70;99.90;26.10;100036.00;;;;5024822;27;112516;-67
2023/08/26 08:42:22;;;;;;;2.53;1.17;;;25.80;99.90;26.20;100032.00;;;;5025508;27;87907;-67
2023/08/26 08:44:48;;;;;;;1.67;1.58;;;25.90;99.90;26.20;100034.00;;;;5022345;27;84034;-67
2023/08/26 08:47:15;;;;;;;1.23;1.15;;;25.90;99.90;26.20;100034.00;;;;5021966;27;104204;-68
2023/08/26 08:49:43;;;;;;;2.58;1.17;;;25.90;99.90;26.30;100031.00;;;;5020475;27;102136;-67
2023/08/26 08:52:10;;;;;;;1.60;1.00;;;26.00;99.90;26.30;100027.00;;;;5024031;27;82916;-67
2023/08/26 08:54:37;;;;;;;1.90;1.15;;;26.00;99.90;26.30;100021.00;;;;5024278;27;84979;-68
2023/08/26 08:57:04;;;;;;;1.95;1.48;;;26.00;99.90;26.30;100012.00;;;;5024068;27;105661;-67
2023/08/26 08:59:33;;;;;;;1.35;0.70;;;26.10;99.90;26.40;100027.00;;;;4987207;27;82958;-68
2023/08/26 09:01:59;;;;;;;1.35;1.15;;;26.10;99.90;26.70;100032.00;;;;5013144;27;83509;-68
2023/08/26 09:04:26;;;;;;;2.53;1.23;;;26.30;99.90;26.90;100031.00;;;;5022795;27;82739;-67
2023/08/26 09:06:52;;;;;;;3.60;1.25;;;26.60;99.90;27.00;100035.00;;;;5022682;27;82966;-67
2023/08/26 09:09:19;;;;;;;2.40;1.67;;;26.70;99.80;27.00;100029.00;;;;5000015;27;84444;-67
2023/08/26 09:11:47;;;;;;;1.27;1.15;;;26.70;98.80;27.00;100017.00;;;;4994041;27;85486;-67
2023/08/26 09:14:13;;;;;;;1.55;1.08;;;26.70;97.90;26.90;100026.00;;;;5007231;27;98720;-67
2023/08/26 09:16:42;;;;;;;2.67;1.00;;;26.70;98.00;27.00;100021.00;;;;5023438;27;95617;-67
2023/08/26 09:19:10;;;;;;;1.20;1.10;;;26.70;97.70;27.00;100026.00;;;;5016180;27;83170;-66
2023/08/26 09:21:44;;;;;;;4.90;1.25;;;26.70;97.10;27.00;100039.00;;;;5024520;27;83121;-67
2023/08/26 09:24:14;;;;;;;1.48;1.15;;;26.70;96.60;27.10;100048.00;;;;4996210;27;93377;-67
2023/08/26 09:26:58;;;;;;;1.33;1.10;;;26.80;96.50;27.00;100028.00;;;;5003565;27;95400;-66
2023/08/26 09:29:25;;;;;;;1.85;1.33;;;26.80;96.40;26.90;100039.00;;;;4997410;27;83050;-66
2023/08/26 09:32:00;;;;;;;2.20;1.45;;;26.70;96.00;26.90;100032.00;;;;5020250;27;84037;-66
2023/08/26 09:34:29;;;;;;;1.35;0.80;;;26.70;96.20;27.10;100033.00;;;;5019747;27;83896;-67
2023/08/26 09:36:59;;;;;;;1.02;0.82;;;26.70;96.10;27.20;100040.00;;;;5020247;27;82879;-66
2023/08/26 09:39:27;;;;;;;1.60;1.27;;;26.90;96.40;27.40;100049.00;;;;5021869;27;106493;-67
2023/08/26 09:41:56;;;;;;;1.45;1.20;;;27.00;96.30;27.50;100051.00;;;;5027192;27;83974;-67
2023/08/26 09:44:23;;;;;;;1.63;0.88;;;27.10;96.00;27.60;100040.00;;;;5008583;27;82897;-68
2023/08/26 09:46:49;;;;;;;1.85;1.02;;;27.20;95.70;27.70;100041.00;;;;5025120;27;82765;-66
2023/08/26 09:49:17;;;;;;;1.42;0.90;;;27.30;95.60;27.80;100041.00;;;;5026115;27;83975;-66
2023/08/26 09:51:53;;;;;;;1.20;1.08;;;27.40;95.30;27.80;100041.00;;;;5025680;27;83462;-66
2023/08/26 09:54:21;;;;;;;1.23;0.98;;;27.60;94.70;27.80;100046.00;;;;5008658;27;111760;-66
2023/08/26 09:56:48;;;;;;;1.65;1.35;;;27.50;94.10;27.70;100044.00;;;;5028370;27;82946;-66
2023/08/26 09:59:15;;;;;;;2.25;0.90;;;27.40;93.60;27.60;100038.00;;;;5024906;27;83945;-67
2023/08/26 10:01:42;;;;;;;2.67;1.20;;;27.40;93.60;27.60;100042.00;;;;5027983;27;83624;-67
2023/08/26 10:04:11;;;;;;;1.83;0.98;;;27.30;93.60;27.70;100059.00;;;;5026433;27;82659;-66
2023/08/26 10:06:52;;;;;;;1.40;1.20;;;27.40;94.30;27.70;100056.00;;;;5024748;27;82852;-66
2023/08/26 10:09:53;;;;;;;1.38;1.27;;;27.40;94.40;27.60;100066.00;;;;5008082;27;82853;-67
2023/08/26 10:12:36;;;;;;;1.92;1.25;;;27.40;94.10;27.70;100076.00;;;;5009294;27;103159;-66
2023/08/26 10:15:04;;;;;;;1.55;1.20;;;27.40;94.20;27.80;100078.00;;;;5012541;27;103410;-66
2023/08/26 10:17:31;;;;;;;1.40;1.10;;;27.40;94.30;27.90;100079.00;;;;5029425;27;81988;-66
2023/08/26 10:19:58;;;;;;;2.00;0.98;;;27.60;94.50;28.00;100086.00;;;;5021203;27;112624;-66
2023/08/26 10:22:27;;;;;;;1.48;1.38;;;27.60;94.30;28.20;100092.00;;;;5011623;27;112192;-67
2023/08/26 10:24:53;;;;;;;1.10;0.70;;;27.80;94.00;28.40;100069.00;;;;5024514;27;111194;-66
2023/08/26 10:27:19;;;;;;;0.85;0.85;;;27.90;93.70;28.60;100082.00;;;;5022650;27;82755;-68
2023/08/26 10:29:46;;;;;;;0.98;0.90;;;28.20;93.40;28.80;100087.00;;;;5009629;27;112068;-67
2023/08/26 10:32:20;;;;;;;0.75;0.60;;;28.40;92.90;28.90;100088.00;;;;5001260;27;112323;-66
2023/08/26 10:35:00;;;;;;;1.83;1.20;;;28.50;92.40;28.80;100082.00;;;;5018581;27;82742;-65
2023/08/26 10:37:31;;;;;;;2.47;0.80;;;28.50;91.90;28.70;100088.00;;;;5007895;27;82832;-65
2023/08/26 10:40:14;;;;;;;0.98;0.70;;;28.40;91.40;28.50;100089.00;;;;5023347;27;83372;-66
2023/08/26 10:43:05;;;;;;;1.67;0.70;;;28.30;91.20;28.60;100091.00;;;;5021706;27;82321;-66
2023/08/26 10:45:30;;;;;;;2.33;0.50;;;28.30;90.60;28.70;100095.00;;;;5007232;27;82942;-67
2023/08/26 10:47:56;;;;;;;0.73;0.60;;;28.30;90.00;29.00;100104.00;;;;5023093;27;107590;-67
2023/08/26 10:50:26;;;;;;;0.65;0.45;;;28.60;89.40;29.20;100092.00;;;;5018752;27;84624;-66